createdAt,value
2018-11-23T00:00:30.672Z,22.87
2018-11-23T00:03:00.482Z,24.30
2018-11-23T00:05:29.706Z,23.03
2018-11-23T00:07:59.690Z,23.80
2018-11-23T00:10:30.075Z,22.67
2018-11-23T00:12:59.272Z,21.87
2018-11-23T00:15:28.461Z,22.57
2018-11-23T00:17:57.746Z,20.90
2018-11-23T00:20:27.948Z,21.73
2018-11-23T00:22:57.054Z,23.23
2018-11-23T00:25:26.894Z,22.57
2018-11-23T00:27:56.417Z,21.23
2018-11-23T00:30:27.782Z,22.63
2018-11-23T00:32:56.926Z,21.10
2018-11-23T00:35:27.416Z,21.13
2018-11-23T00:37:56.777Z,19.00
2018-11-23T00:40:27.421Z,21.83
2018-11-23T00:42:56.391Z,22.27
2018-11-23T00:45:25.438Z,22.33
2018-11-23T00:47:55.312Z,23.43
2018-11-23T00:50:25.023Z,24.30
2018-11-23T00:52:54.920Z,24.10
2018-11-23T00:55:24.755Z,23.60
2018-11-23T00:57:53.545Z,22.67
2018-11-23T01:00:25.067Z,22.30
2018-11-23T01:02:55.546Z,23.10
2018-11-23T01:05:24.704Z,23.97
2018-11-23T01:07:53.892Z,26.10
2018-11-23T01:10:24.058Z,24.20
2018-11-23T01:12:53.660Z,24.10
2018-11-23T01:15:22.883Z,31.73
2018-11-23T01:17:52.019Z,26.23
2018-11-23T01:20:23.372Z,24.63
2018-11-23T01:22:53.049Z,25.90
2018-11-23T01:25:23.332Z,25.80
2018-11-23T01:27:53.345Z,25.37
2018-11-23T01:30:24.122Z,25.93
2018-11-23T01:32:53.945Z,28.87
2018-11-23T01:35:23.144Z,24.90
2018-11-23T01:37:52.352Z,24.40
2018-11-23T01:40:23.618Z,25.07
2018-11-23T01:42:53.095Z,24.83
2018-11-23T01:45:22.266Z,23.67
2018-11-23T01:47:51.952Z,26.73
2018-11-23T01:50:23.390Z,23.87
2018-11-23T01:52:53.826Z,22.20
2018-11-23T01:55:23.756Z,26.60
2018-11-23T01:57:53.058Z,25.83
2018-11-23T02:00:24.067Z,22.00
2018-11-23T02:02:54.127Z,21.80
2018-11-23T02:05:23.561Z,27.27
2018-11-23T02:07:52.672Z,23.83
2018-11-23T02:10:21.786Z,25.70
2018-11-23T02:12:50.874Z,28.53
2018-11-23T02:15:21.207Z,27.63
2018-11-23T02:17:50.882Z,26.60
2018-11-23T02:20:20.921Z,25.83
2018-11-23T02:22:50.002Z,26.57
2018-11-23T02:25:19.258Z,25.40
2018-11-23T02:27:49.163Z,26.43
2018-11-23T02:30:20.718Z,24.80
2018-11-23T02:32:49.886Z,26.17
2018-11-23T02:35:19.386Z,26.00
2018-11-23T02:37:48.514Z,24.90
2018-11-23T02:40:19.590Z,25.07
2018-11-23T02:42:48.704Z,24.13
2018-11-23T02:45:19.490Z,29.17
2018-11-23T02:47:49.250Z,27.50
2018-11-23T02:50:18.325Z,25.73
2018-11-23T02:52:48.268Z,25.70
2018-11-23T02:55:18.464Z,24.27
2018-11-23T02:57:48.210Z,23.07
2018-11-23T03:00:19.673Z,23.67
2018-11-23T03:02:48.800Z,23.70
2018-11-23T03:05:19.611Z,21.53
2018-11-23T03:07:48.716Z,24.13
2018-11-23T03:10:18.905Z,24.00
2018-11-23T03:12:48.846Z,23.60
2018-11-23T03:15:19.295Z,24.50
2018-11-23T03:17:48.999Z,24.30
2018-11-23T03:20:19.414Z,22.23
2018-11-23T03:23:13.491Z,20.40
2018-11-23T03:29:18.592Z,24.03
2018-11-23T03:32:04.351Z,25.70
2018-11-23T03:41:45.894Z,22.17
2018-11-23T03:45:11.095Z,21.77
2018-11-23T03:47:40.934Z,22.47
2018-11-23T03:50:11.301Z,24.23
2018-11-23T03:52:55.091Z,23.20
2018-11-23T03:55:24.370Z,25.87
2018-11-23T04:01:57.330Z,26.53
2018-11-23T04:08:30.975Z,25.40
2018-11-23T04:50:29.010Z,22.27
2018-11-23T04:56:34.174Z,21.60
2018-11-23T05:06:59.204Z,24.30
2018-11-23T05:42:54.066Z,15.17
2018-11-23T06:03:34.045Z,23.90
2018-11-23T06:41:49.238Z,20.00
2018-11-23T07:41:06.026Z,17.20
2018-11-23T07:43:35.202Z,17.03
2018-11-23T07:46:04.302Z,17.80
2018-11-23T07:48:33.507Z,17.20
2018-11-23T07:51:06.365Z,19.33
2018-11-23T07:53:40.180Z,18.63
2018-11-23T07:56:12.921Z,16.00
2018-11-23T07:58:42.513Z,15.37
2018-11-23T08:01:12.848Z,16.30
2018-11-23T08:03:44.192Z,17.97
2018-11-23T08:06:13.820Z,18.00
2018-11-23T08:08:43.871Z,16.30
2018-11-23T08:11:14.949Z,14.97
2018-11-23T08:13:46.072Z,16.63
2018-11-23T08:16:17.599Z,18.30
2018-11-23T08:18:48.010Z,15.50
2018-11-23T08:21:20.210Z,15.77
2018-11-23T08:23:50.097Z,13.37
2018-11-23T08:26:22.651Z,16.80
2018-11-23T08:28:53.148Z,17.40
2018-11-23T08:31:22.276Z,16.47
2018-11-23T08:33:53.424Z,16.07
2018-11-23T08:36:23.471Z,16.53
2018-11-23T08:38:52.726Z,15.03
2018-11-23T08:41:21.866Z,13.30
2018-11-23T08:43:52.874Z,12.67
2018-11-23T08:46:22.270Z,12.00
2018-11-23T08:48:53.241Z,13.10
2018-11-23T08:51:22.351Z,12.63
2018-11-23T08:53:51.469Z,13.80
2018-11-23T08:56:20.696Z,13.43
2018-11-23T08:58:49.918Z,12.60
2018-11-23T09:01:19.166Z,10.53
2018-11-23T09:03:50.294Z,11.23
2018-11-23T09:06:19.396Z,11.70
2018-11-23T09:08:49.166Z,11.90
2018-11-23T09:11:18.504Z,11.70
2018-11-23T09:13:47.980Z,11.33
2018-11-23T09:16:17.863Z,10.33
2018-11-23T09:18:49.640Z,9.60
2018-11-23T09:21:21.004Z,12.67
2018-11-23T09:23:50.154Z,11.57
2018-11-23T09:26:19.367Z,12.30
2018-11-23T09:28:48.582Z,13.30
2018-11-23T09:31:17.879Z,10.97
2018-11-23T09:33:46.996Z,12.20
2018-11-23T09:36:16.863Z,13.87
2018-11-23T09:38:46.230Z,12.77
2018-11-23T09:41:15.368Z,12.40
2018-11-23T09:43:45.143Z,11.80
2018-11-23T09:46:14.860Z,12.50
2018-11-23T09:48:45.942Z,12.20
2018-11-23T09:51:19.141Z,12.10
2018-11-23T09:53:49.804Z,11.70
2018-11-23T09:56:22.466Z,11.00
2018-11-23T09:58:52.020Z,12.00
2018-11-23T10:01:21.123Z,12.73
2018-11-23T10:03:50.257Z,11.67
2018-11-23T10:06:19.455Z,11.77
2018-11-23T10:08:48.642Z,12.70
2018-11-23T10:11:17.833Z,11.10
2018-11-23T10:13:47.046Z,12.27
2018-11-23T10:16:16.270Z,10.80
2018-11-23T10:18:45.507Z,11.87
2018-11-23T10:21:15.142Z,11.07
2018-11-23T10:23:44.323Z,14.00
2018-11-23T10:26:13.555Z,12.23
2018-11-23T10:28:42.772Z,12.70
2018-11-23T10:31:12.015Z,12.70
2018-11-23T10:33:41.862Z,10.70
2018-11-23T10:36:12.008Z,11.00
2018-11-23T10:38:42.662Z,11.00
2018-11-23T10:41:11.830Z,11.93
2018-11-23T10:43:41.159Z,11.37
2018-11-23T10:46:10.339Z,10.43
2018-11-23T10:48:39.426Z,11.33
2018-11-23T10:51:09.310Z,10.30
2018-11-23T10:53:38.784Z,11.40
2018-11-23T10:56:08.068Z,9.30
2018-11-23T10:58:38.719Z,10.07
2018-11-23T11:01:13.106Z,9.93
2018-11-23T11:03:47.375Z,9.43
2018-11-23T11:06:22.038Z,9.33
2018-11-23T11:08:51.133Z,9.07
2018-11-23T11:11:21.144Z,8.73
2018-11-23T11:13:51.155Z,9.90
2018-11-23T11:16:23.421Z,9.13
2018-11-23T11:18:53.143Z,8.17
2018-11-23T11:21:22.787Z,7.87
2018-11-23T11:23:52.023Z,8.47
2018-11-23T11:26:21.131Z,8.90
2018-11-23T11:28:50.466Z,7.67
2018-11-23T11:31:20.390Z,7.80
2018-11-23T11:33:50.507Z,7.90
2018-11-23T11:36:20.523Z,8.57
2018-11-23T11:38:49.719Z,8.40
2018-11-23T11:41:19.029Z,7.87
2018-11-23T11:43:48.253Z,7.30
2018-11-23T11:46:17.985Z,7.60
2018-11-23T11:48:48.159Z,7.63
2018-11-23T11:51:18.838Z,7.10
2018-11-23T11:53:48.022Z,6.77
2018-11-23T11:56:17.102Z,7.40
2018-11-23T11:58:47.486Z,7.30
2018-11-23T12:01:17.455Z,8.33
2018-11-23T12:03:46.612Z,7.83
2018-11-23T12:06:15.722Z,7.77
2018-11-23T12:08:44.882Z,8.27
2018-11-23T12:11:14.723Z,7.50
2018-11-23T12:13:46.689Z,6.70
2018-11-23T12:16:15.783Z,7.23
2018-11-23T12:18:45.015Z,7.43
2018-11-23T12:21:14.232Z,8.77
2018-11-23T12:23:44.663Z,7.80
2018-11-23T12:26:13.925Z,7.67
2018-11-23T12:28:43.681Z,8.23
2018-11-23T12:33:32.964Z,8.97
2018-11-23T12:36:02.646Z,9.00
2018-11-23T12:38:32.293Z,10.40
2018-11-23T12:41:04.223Z,9.20
2018-11-23T12:43:35.065Z,9.83
2018-11-23T12:46:05.435Z,8.77
2018-11-23T12:48:35.529Z,8.80
2018-11-23T12:51:07.102Z,8.23
2018-11-23T12:53:37.255Z,8.77
2018-11-23T12:56:06.553Z,10.00
2018-11-23T12:58:35.827Z,8.73
2018-11-23T13:01:05.166Z,8.67
2018-11-23T13:03:34.250Z,10.40
2018-11-23T13:06:04.841Z,9.20
2018-11-23T13:08:34.063Z,10.57
2018-11-23T13:11:03.169Z,10.93
2018-11-23T13:13:32.435Z,10.53
2018-11-23T13:16:02.628Z,10.47
2018-11-23T13:18:31.812Z,11.07
2018-11-23T13:21:00.979Z,10.77
2018-11-23T13:23:30.160Z,10.37
2018-11-23T13:26:00.397Z,10.93
2018-11-23T13:28:29.642Z,10.57
2018-11-23T13:30:59.376Z,11.23
2018-11-23T13:33:29.855Z,10.40
2018-11-23T13:35:59.147Z,10.90
2018-11-23T13:38:28.363Z,10.17
2018-11-23T13:40:57.502Z,11.90
2018-11-23T13:43:27.037Z,9.73
2018-11-23T13:45:56.224Z,11.20
2018-11-23T13:48:25.299Z,10.93
2018-11-23T13:50:54.413Z,10.13
2018-11-23T13:53:25.243Z,12.63
2018-11-23T13:55:55.098Z,10.60
2018-11-23T13:58:24.273Z,11.17
2018-11-23T14:00:54.103Z,10.30
2018-11-23T14:03:23.743Z,12.30
2018-11-23T14:05:53.782Z,10.93
2018-11-23T14:08:22.974Z,10.20
2018-11-23T14:10:52.240Z,10.53
2018-11-23T14:13:22.638Z,10.80
2018-11-23T14:15:51.885Z,10.30
2018-11-23T14:18:20.954Z,11.30
2018-11-23T14:20:50.104Z,10.53
2018-11-23T14:23:20.096Z,12.67
2018-11-23T14:25:49.379Z,12.20
2018-11-23T14:28:18.612Z,11.00
2018-11-23T14:30:47.738Z,10.10
2018-11-23T14:33:17.722Z,8.93
2018-11-23T14:35:46.973Z,10.73
2018-11-23T14:38:17.525Z,8.83
2018-11-23T14:40:47.809Z,10.27
2018-11-23T14:43:17.205Z,9.17
2018-11-23T14:45:46.583Z,9.63
2018-11-23T14:48:17.035Z,8.47
2018-11-23T14:50:48.810Z,9.10
2018-11-23T14:53:18.054Z,9.63
2018-11-23T14:55:47.257Z,9.10
2018-11-23T14:58:17.059Z,9.60
2018-11-23T15:00:46.354Z,9.10
2018-11-23T15:03:15.520Z,9.43
2018-11-23T15:05:44.715Z,9.57
2018-11-23T15:08:14.314Z,9.20
2018-11-23T15:10:44.741Z,9.57
2018-11-23T15:13:14.833Z,10.27
2018-11-23T15:15:44.135Z,9.00
2018-11-23T15:18:13.241Z,9.67
2018-11-23T15:20:44.340Z,8.80
2018-11-23T15:23:16.597Z,10.40
2018-11-23T15:25:45.871Z,10.73
2018-11-23T15:28:16.197Z,10.77
2018-11-23T15:30:46.216Z,10.23
2018-11-23T15:33:16.920Z,9.87
2018-11-23T15:35:46.501Z,9.70
2018-11-23T15:38:18.338Z,9.47
2018-11-23T15:40:47.850Z,11.07
2018-11-23T15:43:18.182Z,10.23
2018-11-23T15:45:48.558Z,9.87
2018-11-23T15:48:17.741Z,8.90
2018-11-23T15:50:47.956Z,9.97
2018-11-23T15:53:18.260Z,10.63
2018-11-23T15:55:47.457Z,9.80
2018-11-23T15:58:18.329Z,11.13
2018-11-23T16:00:49.270Z,11.53
2018-11-23T16:03:18.605Z,8.53
2018-11-23T16:05:48.520Z,10.50
2018-11-23T16:08:19.608Z,10.03
2018-11-23T16:10:49.170Z,9.47
2018-11-23T16:13:19.121Z,11.07
2018-11-23T16:15:49.366Z,10.37
2018-11-23T16:18:19.220Z,11.20
2018-11-23T16:20:48.381Z,11.30
2018-11-23T16:23:20.777Z,11.07
2018-11-23T16:25:50.638Z,10.90
2018-11-23T16:28:19.915Z,11.10
2018-11-23T16:30:51.029Z,13.30
2018-11-23T16:33:21.643Z,11.33
2018-11-23T16:35:50.914Z,11.47
2018-11-23T16:38:22.160Z,12.27
2018-11-23T16:40:53.850Z,11.80
2018-11-23T16:43:23.045Z,11.93
2018-11-23T16:45:52.156Z,11.80
2018-11-23T16:48:21.866Z,11.27
2018-11-23T16:50:51.086Z,11.70
2018-11-23T16:53:21.643Z,13.80
2018-11-23T16:55:51.654Z,11.77
2018-11-23T16:58:20.754Z,11.73
2018-11-23T17:00:50.091Z,13.97
2018-11-23T17:03:20.691Z,12.73
2018-11-23T17:05:51.588Z,15.67
2018-11-23T17:08:20.889Z,12.90
2018-11-23T17:10:50.137Z,14.17
2018-11-23T17:13:19.446Z,14.17
2018-11-23T17:15:48.553Z,15.43
2018-11-23T17:18:18.379Z,14.70
2018-11-23T17:20:47.804Z,13.13
2018-11-23T17:23:16.975Z,13.33
2018-11-23T17:25:46.130Z,13.17
2018-11-23T17:28:15.293Z,13.27
2018-11-23T17:30:44.957Z,15.27
2018-11-23T17:33:14.069Z,13.27
2018-11-23T17:35:43.300Z,14.57
2018-11-23T17:38:12.403Z,12.90
2018-11-23T17:40:42.275Z,14.23
2018-11-23T17:43:12.182Z,13.50
2018-11-23T17:45:41.464Z,15.70
2018-11-23T17:48:10.702Z,13.77
2018-11-23T17:50:40.304Z,13.30
2018-11-23T17:53:09.851Z,13.50
2018-11-23T17:55:38.966Z,13.93
2018-11-23T17:58:10.541Z,13.20
2018-11-23T18:00:39.854Z,15.93
2018-11-23T18:03:08.862Z,15.10
2018-11-23T18:05:39.781Z,15.33
2018-11-23T18:08:09.024Z,15.73
2018-11-23T18:10:38.751Z,16.63
2018-11-23T18:13:08.317Z,13.40
2018-11-23T18:15:37.422Z,16.40
2018-11-23T18:18:07.206Z,12.83
2018-11-23T18:20:36.888Z,17.80
2018-11-23T18:23:06.380Z,16.93
2018-11-23T18:25:37.439Z,17.30
2018-11-23T18:28:06.721Z,16.37
2018-11-23T18:30:36.649Z,15.17
2018-11-23T18:33:08.417Z,15.90
2018-11-23T18:35:37.649Z,16.10
2018-11-23T18:38:06.855Z,18.80
2018-11-23T18:40:37.500Z,15.70
2018-11-23T18:43:05.607Z,16.13
2018-11-23T18:45:34.829Z,16.93
2018-11-23T18:48:04.791Z,17.97
2018-11-23T18:50:34.072Z,19.47
2018-11-23T18:53:03.382Z,17.97
2018-11-23T18:55:33.266Z,18.67
2018-11-23T18:58:02.387Z,18.67
2018-11-23T19:00:31.530Z,18.10
2018-11-23T19:03:01.542Z,18.53
2018-11-23T19:05:30.670Z,18.33
2018-11-23T19:08:01.227Z,17.30
2018-11-23T19:10:30.508Z,17.70
2018-11-23T19:13:00.311Z,17.50
2018-11-23T19:15:30.169Z,20.30
2018-11-23T19:18:00.067Z,17.63
2018-11-23T19:20:29.630Z,16.83
2018-11-23T19:23:00.013Z,15.80
2018-11-23T19:25:29.666Z,17.70
2018-11-23T19:27:58.801Z,18.50
2018-11-23T19:30:29.055Z,16.43
2018-11-23T19:32:57.272Z,16.40
2018-11-23T19:35:26.672Z,15.73
2018-11-23T19:37:56.505Z,18.67
2018-11-23T19:40:26.933Z,16.90
2018-11-23T19:42:56.802Z,16.03
2018-11-23T19:45:25.874Z,17.67
2018-11-23T19:47:55.007Z,17.63
2018-11-23T19:50:25.119Z,16.37
2018-11-23T19:52:54.290Z,15.00
2018-11-23T19:55:23.407Z,16.57
2018-11-23T19:57:53.097Z,15.03
2018-11-23T20:00:26.577Z,16.27
2018-11-23T20:02:55.877Z,13.93
2018-11-23T20:05:25.178Z,15.83
2018-11-23T20:07:55.698Z,15.97
2018-11-23T20:10:26.248Z,14.73
2018-11-23T20:12:56.882Z,18.37
2018-11-23T20:15:26.069Z,14.80
2018-11-23T20:17:55.952Z,16.53
2018-11-23T20:20:25.141Z,13.67
2018-11-23T20:22:54.308Z,15.33
2018-11-23T20:25:23.516Z,16.73
2018-11-23T20:27:54.157Z,16.80
2018-11-23T20:30:24.170Z,14.97
2018-11-23T20:32:53.564Z,16.97
2018-11-23T20:35:23.178Z,17.23
2018-11-23T20:37:53.163Z,15.23
2018-11-23T20:40:23.130Z,17.33
2018-11-23T20:42:53.430Z,16.07
2018-11-23T20:45:23.863Z,15.50
2018-11-23T20:47:53.050Z,14.53
2018-11-23T20:50:22.158Z,16.00
2018-11-23T20:52:54.072Z,15.03
2018-11-23T20:55:23.591Z,14.97
2018-11-23T20:57:52.898Z,15.40
2018-11-23T21:00:22.355Z,15.20
2018-11-23T21:02:52.600Z,15.70
2018-11-23T21:05:22.390Z,16.30
2018-11-23T21:07:52.576Z,18.13
2018-11-23T21:10:24.027Z,16.93
2018-11-23T21:12:53.652Z,18.53
2018-11-23T21:15:24.024Z,16.17
2018-11-23T21:17:53.159Z,16.90
2018-11-23T21:20:22.382Z,17.53
2018-11-23T21:22:52.356Z,15.87
2018-11-23T21:25:21.527Z,16.80
2018-11-23T21:27:51.467Z,17.23
2018-11-23T21:30:21.886Z,16.33
2018-11-23T21:32:51.841Z,18.33
2018-11-23T21:35:20.921Z,16.13
2018-11-23T21:37:50.054Z,17.00
2018-11-23T21:40:20.379Z,17.63
2018-11-23T21:42:49.501Z,16.73
2018-11-23T21:45:19.791Z,15.80
2018-11-23T21:47:48.940Z,15.60
2018-11-23T21:50:25.663Z,16.20
2018-11-23T21:52:50.850Z,17.47
2018-11-23T21:55:21.508Z,17.00
2018-11-23T21:57:51.075Z,16.53
2018-11-23T22:00:20.839Z,17.33
2018-11-23T22:02:50.081Z,19.10
2018-11-23T22:05:19.390Z,17.50
2018-11-23T22:07:48.633Z,17.20
2018-11-23T22:10:20.031Z,17.17
2018-11-23T22:12:49.826Z,16.97
2018-11-23T22:15:21.123Z,18.03
2018-11-23T22:17:51.524Z,16.87
2018-11-23T22:20:21.772Z,16.40
2018-11-23T22:22:51.523Z,15.10
2018-11-23T22:25:22.252Z,17.30
2018-11-23T22:27:51.499Z,16.70
2018-11-23T22:30:26.177Z,17.23
2018-11-23T22:32:55.942Z,16.60
2018-11-23T22:35:25.664Z,12.43
2018-11-23T22:43:59.975Z,17.90
2018-11-23T22:46:29.216Z,20.63
2018-11-23T22:48:58.806Z,16.83
2018-11-23T22:51:27.924Z,17.23
2018-11-23T22:53:57.195Z,15.53
2018-11-23T22:56:27.048Z,17.80
2018-11-23T22:58:56.590Z,17.30
2018-11-23T23:01:25.707Z,14.37
2018-11-23T23:03:54.951Z,17.07
2018-11-23T23:06:24.728Z,15.40
2018-11-23T23:08:53.993Z,15.00
2018-11-23T23:11:23.682Z,15.07
2018-11-23T23:13:52.927Z,14.40
2018-11-23T23:16:22.106Z,16.13
2018-11-23T23:21:43.096Z,16.60
2018-11-23T23:24:12.175Z,15.70
2018-11-23T23:26:41.372Z,13.07
2018-11-23T23:29:10.542Z,13.60
2018-11-23T23:31:40.457Z,12.73
2018-11-23T23:34:09.673Z,12.73
2018-11-23T23:36:41.546Z,15.00
2018-11-23T23:39:10.712Z,12.80
2018-11-23T23:41:40.139Z,13.27
2018-11-23T23:44:09.205Z,14.87
2018-11-23T23:46:38.508Z,14.83
2018-11-23T23:49:07.748Z,13.73
2018-11-23T23:51:37.030Z,14.90
2018-11-23T23:54:06.194Z,13.67
2018-11-23T23:56:35.998Z,14.10
2018-11-23T23:59:05.630Z,16.23
